createdAt,value
2022-10-18T00:00:03.653Z,12.20
2022-10-18T00:02:31.477Z,11.43
2022-10-18T00:04:58.396Z,12.10
2022-10-18T00:07:25.164Z,11.30
2022-10-18T00:09:51.921Z,12.18
2022-10-18T00:12:18.826Z,11.77
2022-10-18T00:14:49.885Z,12.05
2022-10-18T00:17:16.683Z,10.85
2022-10-18T00:19:43.731Z,11.05
2022-10-18T00:22:10.511Z,11.38
2022-10-18T00:24:37.258Z,11.00
2022-10-18T00:27:04.227Z,11.15
2022-10-18T00:29:31.000Z,12.02
2022-10-18T00:31:57.801Z,10.95
2022-10-18T00:34:24.668Z,11.68
2022-10-18T00:36:51.439Z,10.20
2022-10-18T00:39:20.241Z,10.45
2022-10-18T00:41:48.038Z,10.30
2022-10-18T00:44:17.853Z,10.55
2022-10-18T00:46:47.177Z,10.98
2022-10-18T00:49:42.474Z,11.27
2022-10-18T00:52:15.305Z,10.18
2022-10-18T00:54:44.333Z,9.60
2022-10-18T00:57:12.649Z,9.93
2022-10-18T00:59:40.278Z,10.68
2022-10-18T01:02:07.960Z,10.70
2022-10-18T01:04:35.256Z,13.20
2022-10-18T01:07:14.053Z,10.88
2022-10-18T01:10:03.851Z,10.40
2022-10-18T01:12:56.670Z,10.20
2022-10-18T01:15:35.714Z,11.30
2022-10-18T01:18:25.201Z,11.07
2022-10-18T01:21:00.609Z,11.38
2022-10-18T01:23:46.304Z,11.98
2022-10-18T01:26:41.169Z,10.77
2022-10-18T01:29:41.691Z,11.30
2022-10-18T01:32:18.954Z,12.85
2022-10-18T01:34:50.190Z,10.82
2022-10-18T01:37:19.551Z,11.13
2022-10-18T01:39:48.005Z,9.73
2022-10-18T01:42:19.980Z,9.40
2022-10-18T01:44:48.157Z,9.25
2022-10-18T01:47:15.693Z,9.63
2022-10-18T01:49:42.620Z,9.15
2022-10-18T01:52:14.356Z,11.13
2022-10-18T01:54:45.065Z,10.23
2022-10-18T01:58:00.296Z,9.75
2022-10-18T02:00:42.476Z,9.60
2022-10-18T02:03:24.006Z,10.07
2022-10-18T02:06:14.277Z,9.43
2022-10-18T02:08:53.174Z,9.90
2022-10-18T02:11:20.375Z,8.98
2022-10-18T02:13:53.235Z,9.00
2022-10-18T02:16:28.005Z,9.18
2022-10-18T02:19:00.522Z,9.27
2022-10-18T02:21:29.533Z,9.40
2022-10-18T02:23:59.005Z,9.52
2022-10-18T02:26:26.101Z,9.30
2022-10-18T02:28:52.965Z,9.13
2022-10-18T02:31:20.393Z,9.00
2022-10-18T02:33:57.200Z,9.53
2022-10-18T02:36:27.024Z,11.63
2022-10-18T02:38:59.219Z,11.23
2022-10-18T02:41:27.231Z,8.98
2022-10-18T02:43:54.438Z,10.13
2022-10-18T02:46:21.636Z,9.00
2022-10-18T02:48:48.462Z,8.90
2022-10-18T02:51:15.641Z,8.98
2022-10-18T02:53:42.497Z,9.32
2022-10-18T02:56:09.582Z,8.77
2022-10-18T02:58:36.396Z,9.10
2022-10-18T03:01:03.183Z,9.20
2022-10-18T03:03:30.213Z,8.80
2022-10-18T03:05:57.035Z,8.32
2022-10-18T03:08:23.920Z,8.38
2022-10-18T03:10:50.659Z,9.90
2022-10-18T03:13:17.627Z,10.27
2022-10-18T03:15:44.537Z,8.93
2022-10-18T03:18:11.270Z,8.00
2022-10-18T03:20:38.067Z,7.78
2022-10-18T03:23:05.466Z,7.90
2022-10-18T03:25:32.250Z,8.63
2022-10-18T03:27:59.102Z,8.10
2022-10-18T03:30:25.952Z,7.95
2022-10-18T03:32:54.211Z,9.38
2022-10-18T03:35:21.065Z,8.50
2022-10-18T03:37:47.952Z,7.75
2022-10-18T03:40:14.836Z,7.97
2022-10-18T03:42:41.630Z,7.50
2022-10-18T03:45:09.025Z,8.18
2022-10-18T03:47:35.937Z,10.47
2022-10-18T03:50:02.956Z,8.85
2022-10-18T03:52:30.124Z,10.77
2022-10-18T03:54:57.166Z,8.68
2022-10-18T03:57:24.031Z,9.40
2022-10-18T03:59:50.921Z,8.83
2022-10-18T04:02:17.868Z,8.82
2022-10-18T04:04:44.675Z,8.70
2022-10-18T04:07:11.506Z,8.50
2022-10-18T04:09:38.385Z,9.10
2022-10-18T04:12:05.341Z,9.17
2022-10-18T04:14:32.237Z,8.68
2022-10-18T04:16:58.985Z,8.60
2022-10-18T04:19:25.704Z,8.88
2022-10-18T04:21:52.415Z,8.82
2022-10-18T04:24:19.480Z,9.30
2022-10-18T04:26:46.294Z,9.10
2022-10-18T04:29:13.185Z,9.65
2022-10-18T04:31:39.992Z,9.05
2022-10-18T04:34:06.829Z,9.32
2022-10-18T04:36:33.639Z,8.43
2022-10-18T04:39:00.503Z,8.80
2022-10-18T04:41:27.342Z,10.10
2022-10-18T04:43:54.087Z,8.70
2022-10-18T04:46:20.873Z,8.63
2022-10-18T04:48:47.567Z,8.63
2022-10-18T04:51:14.527Z,8.07
2022-10-18T04:53:41.268Z,7.88
2022-10-18T04:56:08.697Z,7.90
2022-10-18T04:58:35.454Z,8.50
2022-10-18T05:01:06.555Z,7.50
2022-10-18T05:03:33.576Z,7.72
2022-10-18T05:06:02.784Z,8.15
2022-10-18T05:08:30.795Z,7.78
2022-10-18T05:10:57.780Z,8.00
2022-10-18T05:13:25.074Z,8.30
2022-10-18T05:15:52.047Z,8.57
2022-10-18T05:18:18.828Z,8.57
2022-10-18T05:20:46.271Z,7.93
2022-10-18T05:23:13.088Z,7.95
2022-10-18T05:25:41.522Z,8.40
2022-10-18T05:28:15.601Z,8.73
2022-10-18T05:30:54.184Z,8.00
2022-10-18T05:33:20.926Z,9.07
2022-10-18T05:35:47.715Z,8.05
2022-10-18T05:38:14.466Z,9.03
2022-10-18T05:40:41.183Z,8.65
2022-10-18T05:43:07.996Z,9.77
2022-10-18T05:45:34.726Z,9.57
2022-10-18T05:48:01.528Z,8.95
2022-10-18T05:50:29.288Z,8.67
2022-10-18T05:53:02.746Z,9.80
2022-10-18T05:55:39.100Z,10.93
2022-10-18T05:58:05.947Z,10.68
2022-10-18T06:00:32.793Z,9.75
2022-10-18T06:03:00.475Z,9.47
2022-10-18T06:05:27.911Z,10.00
2022-10-18T06:07:56.134Z,9.23
2022-10-18T06:10:23.149Z,9.00
2022-10-18T06:12:49.983Z,9.90
2022-10-18T06:15:16.859Z,9.60
2022-10-18T06:17:43.627Z,9.20
2022-10-18T06:20:10.618Z,8.40
2022-10-18T06:22:37.517Z,7.82
2022-10-18T06:25:04.504Z,7.97
2022-10-18T06:27:33.669Z,7.73
2022-10-18T06:30:00.807Z,6.72
2022-10-18T06:32:27.518Z,7.30
2022-10-18T06:34:54.286Z,7.20
2022-10-18T06:37:21.055Z,6.85
2022-10-18T06:39:47.823Z,6.87
2022-10-18T06:42:15.370Z,6.40
2022-10-18T06:44:43.850Z,6.22
2022-10-18T06:47:11.306Z,6.20
2022-10-18T06:49:38.045Z,6.25
2022-10-18T06:52:05.776Z,6.40
2022-10-18T06:54:32.785Z,6.30
2022-10-18T06:56:59.726Z,7.03
2022-10-18T06:59:28.981Z,7.07
2022-10-18T07:01:58.053Z,7.60
2022-10-18T07:04:27.742Z,6.53
2022-10-18T07:06:54.903Z,6.55
2022-10-18T07:09:21.622Z,5.82
2022-10-18T07:11:48.387Z,5.90
2022-10-18T07:14:16.516Z,6.63
2022-10-18T07:16:43.495Z,6.70
2022-10-18T07:19:10.430Z,5.63
2022-10-18T07:21:37.205Z,6.07
2022-10-18T07:24:04.104Z,5.32
2022-10-18T07:26:33.226Z,5.80
2022-10-18T07:29:07.525Z,6.23
2022-10-18T07:31:35.007Z,6.03
2022-10-18T07:34:07.451Z,5.10
2022-10-18T07:36:34.623Z,5.45
2022-10-18T07:39:01.357Z,6.10
2022-10-18T07:41:29.029Z,5.50
2022-10-18T07:43:55.780Z,4.85
2022-10-18T07:46:23.022Z,5.10
2022-10-18T07:48:50.330Z,6.35
2022-10-18T07:51:18.619Z,6.03
2022-10-18T07:53:45.810Z,6.60
2022-10-18T07:56:16.748Z,5.95
2022-10-18T07:58:52.318Z,5.75
2022-10-18T08:01:21.181Z,5.05
2022-10-18T08:03:48.104Z,5.20
2022-10-18T08:06:17.950Z,4.70
2022-10-18T08:08:45.817Z,4.45
2022-10-18T08:11:15.490Z,4.80
2022-10-18T08:13:42.853Z,5.10
2022-10-18T08:16:12.069Z,4.97
2022-10-18T08:18:38.882Z,4.77
2022-10-18T08:21:08.014Z,4.03
2022-10-18T08:23:35.709Z,3.97
2022-10-18T08:26:07.760Z,3.95
2022-10-18T08:28:38.036Z,4.05
2022-10-18T08:31:19.958Z,3.80
2022-10-18T08:33:47.306Z,3.80
2022-10-18T08:36:16.488Z,3.72
2022-10-18T08:38:43.754Z,3.78
2022-10-18T08:41:29.490Z,3.70
2022-10-18T08:43:56.246Z,3.80
2022-10-18T08:46:23.215Z,3.58
2022-10-18T08:48:54.059Z,3.60
2022-10-18T08:51:37.756Z,3.58
2022-10-18T08:54:11.980Z,3.78
2022-10-18T08:56:42.035Z,3.20
2022-10-18T08:59:11.358Z,3.40
2022-10-18T09:01:53.673Z,3.00
2022-10-18T09:04:45.807Z,2.90
2022-10-18T09:07:27.766Z,3.00
2022-10-18T09:10:42.229Z,2.80
2022-10-18T09:13:26.291Z,2.92
2022-10-18T09:16:02.180Z,2.65
2022-10-18T09:18:51.891Z,2.85
2022-10-18T09:21:35.755Z,2.80
2022-10-18T09:24:13.714Z,2.50
2022-10-18T09:26:49.238Z,2.50
2022-10-18T09:29:38.041Z,2.40
2022-10-18T09:32:19.707Z,2.15
2022-10-18T09:35:24.346Z,2.50
2022-10-18T09:37:55.809Z,2.30
2022-10-18T09:40:28.973Z,2.20
2022-10-18T09:43:01.591Z,2.20
2022-10-18T09:45:33.995Z,2.13
2022-10-18T09:48:03.839Z,2.17
2022-10-18T09:50:41.554Z,2.03
2022-10-18T09:53:12.997Z,2.00
2022-10-18T09:55:54.008Z,1.90
2022-10-18T09:58:22.785Z,1.83
2022-10-18T10:00:52.582Z,1.70
2022-10-18T10:03:19.437Z,2.17
2022-10-18T10:05:46.374Z,1.67
2022-10-18T10:08:13.285Z,1.80
2022-10-18T10:10:46.517Z,2.83
2022-10-18T10:13:26.125Z,1.50
2022-10-18T10:16:01.352Z,1.60
2022-10-18T10:18:38.973Z,1.73
2022-10-18T10:21:12.602Z,1.60
2022-10-18T10:23:46.642Z,1.80
2022-10-18T10:26:27.879Z,1.65
2022-10-18T10:28:54.830Z,1.50
2022-10-18T10:31:31.713Z,1.50
2022-10-18T10:34:12.316Z,1.83
2022-10-18T10:36:52.545Z,1.65
2022-10-18T10:39:21.482Z,1.65
2022-10-18T10:42:00.049Z,1.50
2022-10-18T10:44:35.799Z,1.63
2022-10-18T10:47:02.856Z,1.50
2022-10-18T10:49:40.776Z,1.50
2022-10-18T10:52:33.950Z,1.70
2022-10-18T10:55:30.403Z,1.73
2022-10-18T10:57:52.364Z,1.60
2022-10-18T11:00:43.370Z,1.50
2022-10-18T11:03:28.504Z,1.45
2022-10-18T11:05:58.026Z,1.58
2022-10-18T11:08:28.254Z,1.70
2022-10-18T11:11:22.179Z,1.50
2022-10-18T11:14:13.735Z,1.40
2022-10-18T11:17:07.888Z,1.77
2022-10-18T11:19:40.004Z,1.50
2022-10-18T11:22:14.411Z,1.50
2022-10-18T11:24:41.394Z,1.38
2022-10-18T11:27:20.488Z,1.40
2022-10-18T11:30:05.784Z,1.33
2022-10-18T11:32:35.804Z,1.50
2022-10-18T11:35:08.819Z,1.50
2022-10-18T11:37:48.756Z,1.52
2022-10-18T11:40:40.551Z,1.45
2022-10-18T11:43:20.355Z,1.60
2022-10-18T11:45:47.300Z,1.70
2022-10-18T11:48:35.383Z,1.50
2022-10-18T11:51:34.325Z,1.40
2022-10-18T11:54:46.453Z,1.42
2022-10-18T11:57:19.113Z,1.45
2022-10-18T12:00:07.052Z,1.40
2022-10-18T12:02:51.741Z,1.20
2022-10-18T12:05:23.494Z,1.50
2022-10-18T12:08:02.460Z,1.48
2022-10-18T12:10:44.322Z,1.60
2022-10-18T12:13:35.227Z,1.33
2022-10-18T12:16:05.265Z,1.43
2022-10-18T12:18:33.562Z,1.40
2022-10-18T12:21:01.888Z,1.30
2022-10-18T12:23:42.838Z,1.38
2022-10-18T12:26:11.228Z,1.60
2022-10-18T12:28:50.182Z,1.50
2022-10-18T12:31:39.890Z,1.40
2022-10-18T12:34:21.877Z,1.38
2022-10-18T12:37:20.637Z,1.50
2022-10-18T12:40:32.229Z,1.65
2022-10-18T12:42:59.113Z,1.47
2022-10-18T12:45:33.395Z,1.60
2022-10-18T12:48:02.692Z,1.50
2022-10-18T12:50:34.970Z,1.33
2022-10-18T12:53:12.291Z,1.50
2022-10-18T12:55:41.230Z,1.63
2022-10-18T12:58:13.679Z,1.40
2022-10-18T13:00:43.099Z,1.65
2022-10-18T13:03:10.244Z,1.30
2022-10-18T13:05:54.981Z,1.50
2022-10-18T13:08:31.627Z,1.40
2022-10-18T13:11:01.467Z,1.50
2022-10-18T13:13:41.709Z,1.35
2022-10-18T13:16:12.609Z,1.50
2022-10-18T13:18:48.438Z,1.60
2022-10-18T13:21:31.870Z,1.40
2022-10-18T13:24:26.668Z,1.30
2022-10-18T13:27:04.129Z,1.48
2022-10-18T13:30:01.018Z,1.20
2022-10-18T13:32:39.479Z,1.20
2022-10-18T13:35:38.423Z,1.50
2022-10-18T13:38:31.454Z,1.20
2022-10-18T13:41:18.463Z,1.30
2022-10-18T13:43:54.182Z,1.50
2022-10-18T13:46:22.333Z,1.30
2022-10-18T13:48:54.701Z,1.40
2022-10-18T13:51:46.292Z,1.33
2022-10-18T13:54:28.398Z,1.23
2022-10-18T13:57:01.234Z,1.23
2022-10-18T13:59:55.735Z,1.33
2022-10-18T14:02:58.465Z,1.40
2022-10-18T14:05:50.629Z,1.20
2022-10-18T14:08:42.454Z,1.42
2022-10-18T14:11:30.619Z,1.30
2022-10-18T14:14:00.354Z,1.30
2022-10-18T14:16:48.970Z,1.20
2022-10-18T14:19:41.795Z,1.20
2022-10-18T14:22:19.659Z,1.27
2022-10-18T14:24:54.109Z,1.35
2022-10-18T14:27:23.169Z,1.40
2022-10-18T14:30:06.519Z,1.43
2022-10-18T14:32:34.095Z,1.23
2022-10-18T14:35:30.623Z,1.50
2022-10-18T14:37:53.808Z,1.30
2022-10-18T14:40:36.343Z,1.45
2022-10-18T14:43:10.433Z,1.40
2022-10-18T14:45:37.197Z,1.52
2022-10-18T14:48:14.749Z,1.50
2022-10-18T14:50:43.792Z,1.60
2022-10-18T14:53:17.875Z,1.40
2022-10-18T14:56:06.528Z,1.50
2022-10-18T14:58:42.624Z,1.65
2022-10-18T15:01:18.208Z,1.30
2022-10-18T15:03:45.631Z,1.40
2022-10-18T15:06:18.783Z,1.42
2022-10-18T15:08:49.134Z,1.40
2022-10-18T15:11:16.756Z,1.40
2022-10-18T15:13:57.358Z,1.60
2022-10-18T15:16:27.977Z,1.50
2022-10-18T15:19:24.479Z,1.40
2022-10-18T15:22:07.962Z,1.23
2022-10-18T15:24:42.709Z,1.40
2022-10-18T15:27:31.262Z,1.35
2022-10-18T15:30:00.675Z,1.50
2022-10-18T15:32:30.139Z,1.67
2022-10-18T15:35:09.998Z,1.40
2022-10-18T15:37:44.252Z,1.40
2022-10-18T15:40:23.278Z,1.33
2022-10-18T15:42:52.829Z,1.52
2022-10-18T15:45:31.621Z,1.52
2022-10-18T15:48:09.288Z,1.60
2022-10-18T15:50:45.215Z,1.60
2022-10-18T15:53:21.240Z,1.70
2022-10-18T15:55:49.847Z,1.58
2022-10-18T15:58:25.870Z,1.52
2022-10-18T16:00:57.564Z,1.60
2022-10-18T16:03:25.054Z,1.67
2022-10-18T16:06:05.015Z,1.48
2022-10-18T16:08:36.954Z,1.55
2022-10-18T16:11:03.792Z,1.60
2022-10-18T16:13:30.564Z,1.50
2022-10-18T16:15:59.445Z,1.60
2022-10-18T16:18:26.903Z,1.65
2022-10-18T16:20:53.732Z,1.50
2022-10-18T16:23:24.654Z,1.50
2022-10-18T16:25:52.258Z,1.80
2022-10-18T16:28:23.558Z,1.70
2022-10-18T16:31:02.090Z,1.80
2022-10-18T16:33:29.049Z,1.75
2022-10-18T16:35:56.546Z,1.73
2022-10-18T16:38:35.558Z,1.80
2022-10-18T16:41:07.578Z,1.83
2022-10-18T16:43:35.329Z,1.70
2022-10-18T16:46:03.137Z,2.00
2022-10-18T16:48:30.589Z,2.00
2022-10-18T16:50:58.467Z,1.97
2022-10-18T16:53:26.309Z,1.90
2022-10-18T16:56:01.231Z,2.00
2022-10-18T16:58:30.548Z,1.92
2022-10-18T17:00:58.916Z,2.10
2022-10-18T17:03:26.440Z,1.83
2022-10-18T17:05:53.883Z,1.90
2022-10-18T17:08:23.967Z,1.92
2022-10-18T17:10:53.950Z,1.88
2022-10-18T17:13:22.088Z,1.90
2022-10-18T17:15:49.904Z,1.90
2022-10-18T17:18:21.630Z,2.20
2022-10-18T17:20:49.525Z,2.22
2022-10-18T17:23:16.781Z,2.55
2022-10-18T17:25:57.450Z,2.33
2022-10-18T17:28:31.630Z,2.33
2022-10-18T17:30:58.480Z,2.60
2022-10-18T17:33:25.272Z,2.50
2022-10-18T17:35:52.023Z,2.35
2022-10-18T17:38:18.837Z,2.88
2022-10-18T17:40:45.582Z,2.90
2022-10-18T17:43:13.715Z,2.72
2022-10-18T17:45:54.149Z,2.67
2022-10-18T17:48:22.160Z,2.55
2022-10-18T17:50:49.239Z,2.70
2022-10-18T17:53:18.275Z,2.37
2022-10-18T17:55:45.075Z,2.60
2022-10-18T17:58:11.821Z,2.47
2022-10-18T18:00:38.593Z,2.58
2022-10-18T18:03:05.504Z,2.78
2022-10-18T18:05:34.152Z,2.70
2022-10-18T18:08:03.990Z,2.70
2022-10-18T18:10:33.380Z,3.70
2022-10-18T18:13:00.619Z,3.28
2022-10-18T18:15:27.402Z,3.88
2022-10-18T18:17:58.029Z,3.60
2022-10-18T18:20:26.214Z,3.90
2022-10-18T18:22:53.104Z,3.88
2022-10-18T18:25:20.103Z,3.80
2022-10-18T18:27:46.997Z,3.83
2022-10-18T18:30:15.289Z,4.10
2022-10-18T18:32:42.077Z,4.05
2022-10-18T18:35:08.972Z,4.00
2022-10-18T18:37:35.861Z,4.22
2022-10-18T18:40:02.998Z,4.20
2022-10-18T18:42:29.939Z,4.23
2022-10-18T18:44:56.863Z,3.90
2022-10-18T18:47:23.748Z,3.90
2022-10-18T18:49:51.595Z,3.72
2022-10-18T18:52:18.603Z,4.05
2022-10-18T18:54:45.548Z,3.77
2022-10-18T18:57:12.425Z,4.10
2022-10-18T18:59:39.276Z,3.65
2022-10-18T19:02:06.403Z,3.47
2022-10-18T19:04:34.938Z,3.78
2022-10-18T19:07:02.291Z,3.60
2022-10-18T19:09:29.233Z,3.40
2022-10-18T19:11:56.935Z,3.58
2022-10-18T19:14:25.947Z,3.85
2022-10-18T19:16:54.677Z,3.75
2022-10-18T19:19:23.482Z,3.57
2022-10-18T19:21:55.771Z,3.65
2022-10-18T19:24:24.048Z,3.80
2022-10-18T19:26:56.281Z,3.70
2022-10-18T19:29:33.493Z,3.63
2022-10-18T19:32:02.283Z,3.47
2022-10-18T19:34:30.774Z,3.60
2022-10-18T19:36:57.867Z,4.20
2022-10-18T19:39:35.603Z,4.03
2022-10-18T19:42:09.978Z,3.80
2022-10-18T19:44:37.571Z,4.50
2022-10-18T19:47:09.889Z,4.07
2022-10-18T19:49:38.117Z,4.20
2022-10-18T19:52:05.111Z,3.88
2022-10-18T19:54:32.006Z,4.00
2022-10-18T19:56:58.748Z,4.10
2022-10-18T19:59:25.661Z,3.75
2022-10-18T20:01:52.610Z,4.20
2022-10-18T20:04:19.499Z,3.90
2022-10-18T20:06:46.425Z,4.18
2022-10-18T20:09:17.687Z,4.10
2022-10-18T20:11:47.380Z,4.00
2022-10-18T20:14:14.146Z,4.45
2022-10-18T20:16:40.937Z,4.30
2022-10-18T20:19:08.149Z,4.63
2022-10-18T20:21:35.928Z,4.40
2022-10-18T20:24:04.624Z,5.15
2022-10-18T20:26:32.287Z,5.15
2022-10-18T20:28:59.946Z,5.45
2022-10-18T20:31:37.176Z,7.15
2022-10-18T20:34:06.917Z,6.63
2022-10-18T20:36:34.676Z,6.75
2022-10-18T20:39:02.134Z,6.60
2022-10-18T20:41:34.648Z,7.10
2022-10-18T20:44:10.817Z,7.10
2022-10-18T20:46:39.105Z,7.10
2022-10-18T20:49:07.887Z,6.43
2022-10-18T20:51:35.410Z,6.63
2022-10-18T20:56:34.162Z,5.97
2022-10-18T20:59:01.451Z,5.60
2022-10-18T21:01:30.853Z,5.53
2022-10-18T21:04:00.602Z,5.60
2022-10-18T21:06:32.996Z,5.40
2022-10-18T21:09:01.948Z,5.05
2022-10-18T21:11:30.809Z,4.70
2022-10-18T21:14:02.533Z,4.97
2022-10-18T21:16:30.351Z,4.53
2022-10-18T21:19:01.412Z,4.70
2022-10-18T21:21:28.136Z,4.43
2022-10-18T21:23:55.288Z,4.30
2022-10-18T21:26:26.845Z,4.40
2022-10-18T21:28:56.518Z,4.32
2022-10-18T21:31:26.024Z,4.00
2022-10-18T21:33:54.853Z,4.35
2022-10-18T21:36:22.233Z,4.10
2022-10-18T21:38:49.567Z,4.10
2022-10-18T21:41:18.696Z,3.65
2022-10-18T21:43:47.959Z,3.97
2022-10-18T21:46:16.419Z,3.85
2022-10-18T21:48:49.526Z,3.70
2022-10-18T21:51:18.510Z,3.80
2022-10-18T21:53:47.195Z,4.10
2022-10-18T21:56:19.867Z,3.60
2022-10-18T21:58:47.102Z,3.70
2022-10-18T22:01:17.219Z,3.60
2022-10-18T22:03:45.324Z,3.55
2022-10-18T22:06:14.656Z,4.30
2022-10-18T22:08:43.273Z,3.83
2022-10-18T22:11:11.586Z,3.53
2022-10-18T22:13:38.683Z,3.60
2022-10-18T22:16:07.011Z,3.50
2022-10-18T22:18:34.589Z,3.60
2022-10-18T22:21:04.467Z,3.40
2022-10-18T22:23:33.148Z,4.07
2022-10-18T22:26:11.315Z,3.93
2022-10-18T22:28:39.920Z,3.88
2022-10-18T22:31:06.879Z,3.88
2022-10-18T22:33:33.814Z,4.65
2022-10-18T22:36:00.676Z,3.90
2022-10-18T22:38:27.486Z,3.47
2022-10-18T22:40:54.231Z,4.03
2022-10-18T22:43:21.024Z,3.70
2022-10-18T22:45:47.898Z,3.67
2022-10-18T22:48:14.707Z,3.88
2022-10-18T22:50:41.483Z,4.00
2022-10-18T22:53:08.175Z,4.50
2022-10-18T22:55:34.940Z,4.60
2022-10-18T22:58:01.790Z,5.00
2022-10-18T23:00:28.611Z,4.47
2022-10-18T23:02:55.446Z,5.17
2022-10-18T23:05:22.216Z,4.93
2022-10-18T23:07:49.342Z,5.40
2022-10-18T23:10:16.595Z,5.22
2022-10-18T23:12:44.213Z,5.40
2022-10-18T23:15:11.745Z,4.83
2022-10-18T23:17:38.953Z,5.50
2022-10-18T23:20:06.338Z,5.18
2022-10-18T23:22:33.315Z,5.80
2022-10-18T23:25:00.420Z,5.18
2022-10-18T23:27:29.250Z,5.70
2022-10-18T23:29:56.183Z,5.10
2022-10-18T23:32:22.889Z,4.80
2022-10-18T23:34:49.677Z,4.68
2022-10-18T23:37:16.444Z,5.00
2022-10-18T23:39:43.233Z,4.77
2022-10-18T23:42:10.114Z,4.78
2022-10-18T23:44:36.877Z,4.53
2022-10-18T23:47:03.723Z,5.28
2022-10-18T23:49:30.559Z,5.15
2022-10-18T23:51:57.392Z,4.70
2022-10-18T23:54:24.179Z,5.05
2022-10-18T23:56:51.035Z,5.20
2022-10-18T23:59:17.908Z,5.30
